Aérodrome :
LOGIN :

S'inscrire | Disclaimer

   EN    FR    IT 

 










Légende :    VFR   VFR Marginal   IFR   IFR Intensif   IFR Très Intensif
Visi : 
Plafond : 
>= 8 km
>= 3000ft
5 à 8 km
1000 à 3000 ft
1500m à 5 km
500 à 1000 ft
800 à 1500m
200 à 500 ft
< 800m
< 200 ft
Symboles :   Orages  Brouillard  Fortes neiges  Fortes précipitations  Vent > 20 kt
SIGMETs :   Divers  Orages  Givrage  Turbulence  Onde Orograph.  Cendres Volcan.







- Altitude de l'aérodrome : 400 ft
- Code IATA : BNX


LQBK - Banja Luka

DERNIER METAR :
  • 190530Z 28005KT 9999 -RA FEW013 OVC020 04/03 Q1023 NOSIG

METARs EXPIRÉS :
  • 190500Z 29006KT 9999 -RA SCT013 BKN023 OVC035 04/03 Q1023 NOSIG
  • 190430Z 34006KT 9999 -RA BKN013 OVC035 04/03 Q1022 NOSIG
  • 190400Z 33006KT 9999 -RA BKN0013 OVC035 04/03 Q1022 NOSIG
  • 190330Z 32005KT 9999 -RA BKN0013 OVC035 04/03 Q1023 NOSIG
  • 190300Z 34005KT 9999 -RA BKN008 OVC035 04/03 Q1022 NOSIG

TAF TAF LQBK
Valide du 19 à 06h jusqu'au 20 à 06h UTC


190500Z 1906/2006 03007KT 9999 -RA SCT015 BKN035 TX07/1912Z TN03/2005Z
TEMPO 1906/1914 RA BKN013 OVC030
PROB30
TEMPO 1920/2006 3000 -RA BR BKN007 OVC015
Pas de NOTAMs connus pour ce terrain.



MET'MAP, la Météo Aéronautique d'un coup d'oeil ! - Copyright ORBIFLY Décembre 2007 - Disclaimer

ORBIFLY MET'MAP TEAM :

Programmation & Développement : Alexandra Zaïnal
Conception & Développement : Baudouin d'Aumeries
Co-Programmation & Développement : Marc-Olivier Méhu
Soutien technique & logistique : Manuel Goepfert

Contact : metmap@orbifly.com




SOURCES & CREDITS :

   NOAA